createdAt,value
2023-02-12T00:01:40.551Z,11.82
2023-02-12T00:04:10.256Z,10.88
2023-02-12T00:06:40.375Z,11.40
2023-02-12T00:09:08.699Z,11.00
2023-02-12T00:11:38.262Z,11.77
2023-02-12T00:14:06.570Z,12.52
2023-02-12T00:16:34.865Z,10.35
2023-02-12T00:19:03.184Z,11.07
2023-02-12T00:21:32.891Z,10.65
2023-02-12T00:24:01.223Z,11.50
2023-02-12T00:26:29.758Z,11.38
2023-02-12T00:28:58.282Z,11.70
2023-02-12T00:31:29.312Z,10.70
2023-02-12T00:36:30.556Z,10.25
2023-02-12T00:39:00.870Z,11.52
2023-02-12T00:41:29.866Z,10.23
2023-02-12T00:43:58.244Z,10.80
2023-02-12T00:46:26.667Z,11.45
2023-02-12T00:48:55.000Z,10.00
2023-02-12T00:51:23.365Z,10.45
2023-02-12T00:53:51.690Z,11.10
2023-02-12T00:56:21.354Z,10.63
2023-02-12T00:58:49.733Z,10.90
2023-02-12T01:01:18.880Z,10.43
2023-02-12T01:03:47.292Z,11.43
2023-02-12T01:06:15.669Z,10.88
2023-02-12T01:08:44.039Z,10.77
2023-02-12T01:11:14.870Z,11.23
2023-02-12T01:13:44.601Z,10.68
2023-02-12T01:16:17.850Z,11.38
2023-02-12T01:18:47.078Z,10.93
2023-02-12T01:21:19.168Z,11.57
2023-02-12T01:23:49.205Z,10.48
2023-02-12T01:26:19.768Z,10.25
2023-02-12T01:28:54.840Z,12.23
2023-02-12T01:31:26.112Z,11.20
2023-02-12T01:33:56.771Z,9.95
2023-02-12T01:36:25.934Z,12.63
2023-02-12T01:38:54.313Z,11.05
2023-02-12T01:41:25.042Z,10.68
2023-02-12T01:44:21.220Z,11.32
2023-02-12T01:46:52.009Z,10.82
2023-02-12T01:49:25.501Z,11.98
2023-02-12T01:51:59.267Z,10.27
2023-02-12T01:54:28.399Z,10.88
2023-02-12T01:56:57.050Z,10.75
2023-02-12T01:59:27.166Z,11.23
2023-02-12T02:01:56.806Z,7.50
2023-02-12T02:04:30.595Z,11.02
2023-02-12T02:07:01.204Z,11.10
2023-02-12T02:09:31.561Z,10.57
2023-02-12T02:12:17.616Z,10.68
2023-02-12T02:14:49.919Z,9.75
2023-02-12T02:17:43.686Z,10.23
2023-02-12T02:20:52.051Z,9.30
2023-02-12T02:24:06.348Z,9.43
2023-02-12T02:27:10.164Z,9.27
2023-02-12T02:30:14.541Z,10.35
2023-02-12T02:32:52.404Z,10.13
2023-02-12T02:35:29.540Z,9.98
2023-02-12T02:38:09.910Z,9.40
2023-02-12T02:40:47.310Z,9.65
2023-02-12T02:43:21.609Z,10.30
2023-02-12T02:45:53.938Z,9.90
2023-02-12T02:48:28.798Z,9.98
2023-02-12T02:51:03.049Z,9.15
2023-02-12T02:53:35.367Z,9.63
2023-02-12T02:56:08.572Z,9.60
2023-02-12T02:58:41.193Z,9.40
2023-02-12T03:01:15.763Z,10.82
2023-02-12T03:03:50.869Z,10.77
2023-02-12T03:06:28.229Z,11.18
2023-02-12T03:09:01.428Z,10.65
2023-02-12T03:11:33.632Z,10.07
2023-02-12T03:14:09.016Z,9.85
2023-02-12T03:16:44.023Z,9.68
2023-02-12T03:19:20.504Z,9.13
2023-02-12T03:21:55.595Z,8.65
2023-02-12T03:24:30.313Z,10.63
2023-02-12T03:27:05.629Z,10.07
2023-02-12T03:29:34.220Z,10.55
2023-02-12T03:32:22.021Z,10.80
2023-02-12T03:34:57.121Z,9.75
2023-02-12T03:37:32.862Z,9.93
2023-02-12T03:40:15.037Z,10.77
2023-02-12T03:42:53.731Z,10.20
2023-02-12T03:45:39.609Z,9.80
2023-02-12T03:48:12.990Z,9.07
2023-02-12T03:50:53.723Z,9.32
2023-02-12T03:53:22.461Z,8.88
2023-02-12T03:55:57.716Z,9.55
2023-02-12T03:58:30.868Z,9.30
2023-02-12T04:00:59.583Z,9.38
2023-02-12T04:03:28.810Z,10.15
2023-02-12T04:05:58.547Z,9.40
2023-02-12T04:08:28.630Z,9.30
2023-02-12T04:11:08.962Z,10.02
2023-02-12T04:13:55.601Z,10.53
2023-02-12T04:16:31.845Z,9.45
2023-02-12T04:19:00.659Z,10.80
2023-02-12T04:21:58.684Z,9.18
2023-02-12T04:24:36.685Z,9.68
2023-02-12T04:27:13.958Z,9.00
2023-02-12T04:29:51.859Z,10.15
2023-02-12T04:32:26.631Z,9.02
2023-02-12T04:35:02.523Z,10.93
2023-02-12T04:37:38.355Z,10.32
2023-02-12T04:40:11.274Z,10.07
2023-02-12T04:42:44.279Z,9.57
2023-02-12T04:45:14.019Z,10.15
2023-02-12T04:47:42.368Z,10.48
2023-02-12T04:50:11.914Z,9.75
2023-02-12T04:52:41.641Z,10.43
2023-02-12T04:55:10.170Z,10.10
2023-02-12T04:57:38.453Z,10.82
2023-02-12T05:00:09.130Z,9.77
2023-02-12T05:02:37.447Z,11.20
2023-02-12T05:05:06.405Z,10.32
2023-02-12T05:07:34.728Z,10.32
2023-02-12T05:10:04.996Z,10.52
2023-02-12T05:12:33.316Z,12.10
2023-02-12T05:15:01.720Z,8.82
2023-02-12T05:17:30.077Z,9.98
2023-02-12T05:19:58.428Z,9.70
2023-02-12T05:22:26.833Z,10.40
2023-02-12T05:24:55.256Z,10.65
2023-02-12T05:27:24.900Z,10.15
2023-02-12T05:29:53.305Z,9.48
2023-02-12T05:32:21.636Z,9.95
2023-02-12T05:34:50.060Z,9.73
2023-02-12T05:37:18.378Z,10.63
2023-02-12T05:39:46.691Z,9.93
2023-02-12T05:42:14.995Z,10.63
2023-02-12T05:44:44.816Z,9.80
2023-02-12T05:47:13.168Z,10.65
2023-02-12T05:49:42.852Z,9.65
2023-02-12T05:52:11.300Z,9.80
2023-02-12T05:54:39.652Z,10.65
2023-02-12T05:57:08.825Z,10.48
2023-02-12T05:59:37.396Z,11.07
2023-02-12T06:02:07.012Z,10.23
2023-02-12T06:04:35.337Z,10.77
2023-02-12T06:07:03.700Z,9.68
2023-02-12T06:09:32.183Z,9.85
2023-02-12T06:12:00.560Z,10.32
2023-02-12T06:14:31.547Z,10.15
2023-02-12T06:17:00.267Z,9.82
2023-02-12T06:19:29.887Z,9.48
2023-02-12T06:21:58.182Z,8.82
2023-02-12T06:24:26.830Z,9.45
2023-02-12T06:26:55.239Z,9.80
2023-02-12T06:29:23.988Z,9.43
2023-02-12T06:31:52.527Z,9.82
2023-02-12T06:34:21.062Z,10.13
2023-02-12T06:36:50.762Z,10.82
2023-02-12T06:39:19.551Z,9.60
2023-02-12T06:41:47.875Z,9.63
2023-02-12T06:44:16.298Z,9.95
2023-02-12T06:46:44.734Z,8.48
2023-02-12T06:49:14.505Z,10.05
2023-02-12T06:51:43.330Z,10.50
2023-02-12T06:54:18.180Z,9.00
2023-02-12T06:56:46.770Z,10.30
2023-02-12T06:59:17.754Z,10.02
2023-02-12T07:01:46.799Z,8.68
2023-02-12T07:04:15.698Z,9.50
2023-02-12T07:06:44.101Z,9.38
2023-02-12T07:09:12.510Z,8.98
2023-02-12T07:11:42.291Z,11.00
2023-02-12T07:14:15.942Z,9.45
2023-02-12T07:16:44.775Z,9.88
2023-02-12T07:19:15.147Z,9.15
2023-02-12T07:21:43.601Z,10.43
2023-02-12T07:24:13.082Z,8.95
2023-02-12T07:26:43.469Z,9.85
2023-02-12T07:29:12.789Z,9.68
2023-02-12T07:31:42.933Z,10.48
2023-02-12T07:34:12.559Z,9.73
2023-02-12T07:36:40.899Z,9.25
2023-02-12T07:39:09.372Z,9.60
2023-02-12T07:41:38.146Z,10.23
2023-02-12T07:44:12.855Z,10.48
2023-02-12T07:46:45.664Z,9.82
2023-02-12T07:49:18.234Z,9.65
2023-02-12T07:51:47.640Z,9.30
2023-02-12T07:54:16.836Z,9.82
2023-02-12T07:56:47.650Z,10.32
2023-02-12T07:59:19.283Z,11.20
2023-02-12T08:01:49.508Z,10.07
2023-02-12T08:04:21.411Z,10.37
2023-02-12T08:06:53.599Z,10.48
2023-02-12T08:09:25.624Z,9.90
2023-02-12T08:11:54.660Z,10.27
2023-02-12T08:14:24.697Z,9.85
2023-02-12T08:16:53.507Z,10.32
2023-02-12T08:19:26.129Z,9.15
2023-02-12T08:21:56.879Z,10.77
2023-02-12T08:24:25.909Z,11.77
2023-02-12T08:26:54.461Z,11.45
2023-02-12T08:29:26.971Z,10.77
2023-02-12T08:31:58.913Z,11.13
2023-02-12T08:34:29.814Z,11.35
2023-02-12T08:36:59.018Z,11.43
2023-02-12T08:39:30.792Z,10.70
2023-02-12T08:42:00.758Z,12.55
2023-02-12T08:44:31.024Z,11.77
2023-02-12T08:46:59.534Z,10.82
2023-02-12T08:49:30.247Z,11.68
2023-02-12T08:52:01.936Z,11.00
2023-02-12T08:54:32.787Z,10.82
2023-02-12T08:57:04.243Z,11.27
2023-02-12T08:59:33.934Z,11.35
2023-02-12T09:02:04.147Z,11.68
2023-02-12T09:04:32.745Z,9.23
2023-02-12T09:07:01.180Z,11.00
2023-02-12T09:09:29.603Z,11.05
2023-02-12T09:11:57.967Z,10.95
2023-02-12T09:14:26.371Z,11.40
2023-02-12T09:16:58.276Z,11.02
2023-02-12T09:19:27.116Z,10.95
2023-02-12T09:21:57.239Z,11.07
2023-02-12T09:24:27.755Z,11.43
2023-02-12T09:26:57.031Z,11.20
2023-02-12T09:29:25.438Z,11.23
2023-02-12T09:31:55.350Z,11.15
2023-02-12T09:34:23.810Z,11.00
2023-02-12T09:36:52.121Z,12.45
2023-02-12T09:39:20.478Z,11.75
2023-02-12T09:42:22.734Z,11.40
2023-02-12T09:45:01.486Z,11.07
2023-02-12T09:47:39.536Z,11.88
2023-02-12T09:50:28.847Z,10.88
2023-02-12T09:52:59.284Z,11.05
2023-02-12T09:55:32.360Z,11.00
2023-02-12T09:58:02.556Z,12.60
2023-02-12T10:00:32.863Z,8.47
2023-02-12T10:03:06.007Z,12.13
2023-02-12T10:05:40.002Z,12.05
2023-02-12T10:08:44.622Z,11.85
2023-02-12T10:11:46.353Z,11.93
2023-02-12T10:14:42.256Z,12.20
2023-02-12T10:17:21.302Z,11.88
2023-02-12T10:20:34.690Z,12.00
2023-02-12T10:23:21.628Z,12.85
2023-02-12T10:25:54.333Z,11.80
2023-02-12T10:28:28.124Z,11.05
2023-02-12T10:31:00.764Z,12.02
2023-02-12T10:33:34.585Z,11.90
2023-02-12T10:36:20.355Z,10.45
2023-02-12T10:38:54.553Z,11.60
2023-02-12T10:41:24.992Z,10.60
2023-02-12T10:43:54.066Z,11.60
2023-02-12T10:46:22.407Z,11.50
2023-02-12T10:48:55.222Z,12.07
2023-02-12T10:51:50.164Z,11.73
2023-02-12T10:54:40.259Z,11.93
2023-02-12T10:57:16.357Z,10.98
2023-02-12T10:59:46.078Z,11.82
2023-02-12T11:02:33.823Z,10.48
2023-02-12T11:05:25.502Z,11.35
2023-02-12T11:07:54.071Z,10.27
2023-02-12T11:10:29.026Z,10.88
2023-02-12T11:12:58.365Z,11.38
2023-02-12T11:15:36.588Z,12.43
2023-02-12T11:18:07.582Z,11.45
2023-02-12T11:20:41.290Z,11.60
2023-02-12T11:23:29.863Z,11.27
2023-02-12T11:26:02.358Z,10.10
2023-02-12T11:28:32.580Z,10.15
2023-02-12T11:31:03.367Z,10.18
2023-02-12T11:33:35.428Z,9.88
2023-02-12T11:36:16.072Z,9.90
2023-02-12T11:38:54.459Z,9.75
2023-02-12T11:41:30.842Z,10.43
2023-02-12T11:43:59.859Z,9.77
2023-02-12T11:46:29.756Z,10.20
2023-02-12T11:49:00.822Z,10.63
2023-02-12T11:54:06.259Z,9.65
2023-02-12T11:56:47.313Z,12.05
2023-02-12T11:59:34.682Z,10.52
2023-02-12T12:02:18.208Z,9.27
2023-02-12T12:04:49.442Z,8.93
2023-02-12T12:10:00.223Z,9.43
2023-02-12T12:12:39.118Z,9.00
2023-02-12T12:15:31.331Z,9.40
2023-02-12T12:18:24.881Z,8.80
2023-02-12T12:20:58.228Z,8.05
2023-02-12T12:23:37.711Z,8.85
2023-02-12T12:26:12.354Z,8.35
2023-02-12T12:28:47.136Z,8.38
2023-02-12T12:31:18.811Z,7.35
2023-02-12T12:33:51.292Z,7.60
2023-02-12T12:37:16.675Z,7.65
2023-02-12T12:40:15.845Z,7.57
2023-02-12T12:43:15.082Z,7.65
2023-02-12T12:46:31.740Z,6.70
2023-02-12T12:49:30.585Z,7.38
2023-02-12T12:52:22.344Z,7.18
2023-02-12T12:55:14.112Z,7.93
2023-02-12T12:57:56.798Z,7.75
2023-02-12T13:00:45.215Z,7.32
2023-02-12T13:03:52.895Z,7.18
2023-02-12T13:06:50.369Z,8.07
2023-02-12T13:09:47.685Z,7.40
2023-02-12T13:12:43.300Z,7.78
2023-02-12T13:15:29.067Z,8.27
2023-02-12T13:18:10.900Z,11.77
2023-02-12T13:20:48.839Z,12.55
2023-02-12T13:23:22.537Z,8.45
2023-02-12T13:26:03.736Z,7.53
2023-02-12T13:31:31.851Z,8.13
2023-02-12T13:34:02.576Z,8.65
2023-02-12T13:36:30.953Z,8.32
2023-02-12T13:39:06.298Z,8.63
2023-02-12T13:41:36.598Z,7.82
2023-02-12T13:44:17.593Z,7.40
2023-02-12T13:46:57.133Z,7.82
2023-02-12T13:49:39.266Z,9.90
2023-02-12T13:52:15.447Z,10.35
2023-02-12T13:54:58.562Z,9.02
2023-02-12T13:57:26.998Z,8.02
2023-02-12T13:59:58.295Z,8.32
2023-02-12T14:02:44.858Z,8.32
2023-02-12T14:05:29.312Z,8.75
2023-02-12T14:08:02.113Z,8.20
2023-02-12T14:10:35.086Z,7.50
2023-02-12T14:13:34.139Z,8.07
2023-02-12T14:16:38.008Z,7.95
2023-02-12T14:19:53.979Z,8.52
2023-02-12T14:23:03.143Z,7.45
2023-02-12T14:25:45.155Z,8.60
2023-02-12T14:28:26.960Z,8.90
2023-02-12T14:31:45.363Z,7.90
2023-02-12T14:34:41.132Z,7.10
2023-02-12T14:37:35.956Z,7.38
2023-02-12T14:40:51.924Z,7.43
2023-02-12T14:43:54.822Z,7.50
2023-02-12T14:46:48.581Z,7.35
2023-02-12T14:49:27.689Z,7.95
2023-02-12T14:52:01.828Z,7.70
2023-02-12T14:54:35.560Z,7.32
2023-02-12T14:57:10.162Z,9.00
2023-02-12T14:59:42.908Z,7.35
2023-02-12T15:02:21.514Z,7.55
2023-02-12T15:04:52.273Z,7.38
2023-02-12T15:07:37.346Z,7.72
2023-02-12T15:10:11.123Z,7.38
2023-02-12T15:12:44.332Z,7.97
2023-02-12T15:15:22.870Z,7.03
2023-02-12T15:17:59.732Z,7.88
2023-02-12T15:20:36.715Z,8.27
2023-02-12T15:23:37.270Z,7.90
2023-02-12T15:26:07.785Z,6.50
2023-02-12T15:28:38.380Z,9.35
2023-02-12T15:31:10.762Z,7.93
2023-02-12T15:33:46.869Z,8.43
2023-02-12T15:36:21.705Z,8.23
2023-02-12T15:38:53.546Z,7.68
2023-02-12T15:41:37.539Z,7.22
2023-02-12T15:44:21.309Z,7.95
2023-02-12T15:47:14.545Z,8.10
2023-02-12T15:49:45.137Z,7.53
2023-02-12T15:52:24.802Z,7.88
2023-02-12T15:54:53.712Z,7.95
2023-02-12T15:57:25.281Z,8.38
2023-02-12T15:59:56.671Z,7.97
2023-02-12T16:02:30.863Z,7.35
2023-02-12T16:05:03.673Z,8.77
2023-02-12T16:07:38.097Z,8.02
2023-02-12T16:10:08.381Z,7.15
2023-02-12T16:12:38.943Z,7.50
2023-02-12T16:15:09.006Z,7.55
2023-02-12T16:17:38.699Z,6.88
2023-02-12T16:20:27.165Z,7.03
2023-02-12T16:22:56.400Z,7.07
2023-02-12T16:25:28.274Z,7.57
2023-02-12T16:28:01.523Z,6.85
2023-02-12T16:30:33.545Z,8.43
2023-02-12T16:33:03.075Z,7.15
2023-02-12T16:35:35.556Z,8.07
2023-02-12T16:38:31.605Z,7.40
2023-02-12T16:41:23.537Z,6.78
2023-02-12T16:44:22.550Z,6.32
2023-02-12T16:46:53.737Z,7.00
2023-02-12T16:49:25.621Z,7.72
2023-02-12T16:52:19.683Z,7.40
2023-02-12T16:54:47.991Z,6.90
2023-02-12T16:57:16.240Z,7.22
2023-02-12T16:59:45.322Z,7.65
2023-02-12T17:02:16.205Z,6.90
2023-02-12T17:04:44.902Z,8.18
2023-02-12T17:07:23.265Z,7.28
2023-02-12T17:09:52.012Z,7.18
2023-02-12T17:12:20.555Z,6.95
2023-02-12T17:14:49.101Z,8.02
2023-02-12T17:17:17.697Z,8.40
2023-02-12T17:19:46.168Z,7.60
2023-02-12T17:22:23.703Z,7.68
2023-02-12T17:24:53.294Z,7.65
2023-02-12T17:27:22.239Z,7.38
2023-02-12T17:29:50.605Z,8.02
2023-02-12T17:32:19.029Z,8.23
2023-02-12T17:34:48.819Z,8.68
2023-02-12T17:37:22.229Z,8.05
2023-02-12T17:39:50.484Z,8.52
2023-02-12T17:42:19.049Z,7.40
2023-02-12T17:44:47.337Z,7.15
2023-02-12T17:47:15.661Z,8.65
2023-02-12T17:49:44.158Z,9.07
2023-02-12T17:52:12.631Z,7.88
2023-02-12T17:54:45.532Z,7.97
2023-02-12T17:57:14.885Z,8.13
2023-02-12T17:59:43.410Z,9.85
2023-02-12T18:02:12.752Z,8.13
2023-02-12T18:04:43.819Z,8.15
2023-02-12T18:09:41.682Z,8.52
2023-02-12T18:12:10.375Z,7.38
2023-02-12T18:14:38.873Z,8.32
2023-02-12T18:17:07.274Z,7.65
2023-02-12T18:19:38.657Z,7.53
2023-02-12T18:22:06.972Z,7.95
2023-02-12T18:24:35.569Z,8.20
2023-02-12T18:27:05.516Z,8.45
2023-02-12T18:29:34.129Z,7.68
2023-02-12T18:32:02.712Z,8.07
2023-02-12T18:34:31.252Z,7.78
2023-02-12T18:36:59.603Z,8.27
2023-02-12T18:39:29.163Z,9.15
2023-02-12T18:41:57.561Z,8.60
2023-02-12T18:44:27.361Z,8.45
2023-02-12T18:46:57.349Z,8.52
2023-02-12T18:49:25.848Z,7.85
2023-02-12T18:51:54.750Z,9.05
2023-02-12T18:54:23.074Z,9.35
2023-02-12T18:56:54.243Z,8.05
2023-02-12T18:59:24.244Z,8.75
2023-02-12T19:01:55.620Z,10.68
2023-02-12T19:04:27.844Z,8.98
2023-02-12T19:06:56.505Z,7.80
2023-02-12T19:09:27.560Z,7.80
2023-02-12T19:14:27.840Z,8.38
2023-02-12T19:16:57.682Z,8.30
2023-02-12T19:19:26.926Z,8.35
2023-02-12T19:21:56.310Z,8.48
2023-02-12T19:24:24.901Z,10.00
2023-02-12T19:26:55.652Z,9.00
2023-02-12T19:29:24.100Z,8.32
2023-02-12T19:31:52.509Z,8.10
2023-02-12T19:34:24.889Z,7.53
2023-02-12T19:36:53.536Z,8.95
2023-02-12T19:39:24.870Z,9.23
2023-02-12T19:41:56.197Z,8.30
2023-02-12T19:44:26.446Z,10.05
2023-02-12T19:46:54.955Z,8.03
2023-02-12T19:49:27.320Z,8.50
2023-02-12T19:51:56.205Z,7.90
2023-02-12T19:54:26.163Z,8.63
2023-02-12T19:56:55.248Z,8.32
2023-02-12T19:59:26.014Z,7.82
2023-02-12T20:01:56.169Z,7.82
2023-02-12T20:04:26.577Z,6.87
2023-02-12T20:06:54.974Z,7.72
2023-02-12T20:09:24.029Z,8.60
2023-02-12T20:11:53.414Z,8.30
2023-02-12T20:14:22.698Z,9.48
2023-02-12T20:16:52.202Z,9.43
2023-02-12T20:19:23.806Z,8.80
2023-02-12T20:21:55.829Z,8.40
2023-02-12T20:24:26.108Z,9.10
2023-02-12T20:26:55.422Z,9.18
2023-02-12T20:29:23.854Z,8.27
2023-02-12T20:31:52.944Z,8.63
2023-02-12T20:34:22.365Z,8.65
2023-02-12T20:36:53.988Z,8.65
2023-02-12T20:39:23.101Z,9.73
2023-02-12T20:41:51.671Z,9.18
2023-02-12T20:44:22.512Z,14.02
2023-02-12T20:46:56.416Z,7.95
2023-02-12T20:49:26.084Z,8.45
2023-02-12T20:51:55.978Z,9.27
2023-02-12T20:54:24.507Z,8.15
2023-02-12T20:56:54.352Z,8.60
2023-02-12T20:59:22.701Z,8.07
2023-02-12T21:01:51.218Z,9.30
2023-02-12T21:04:20.959Z,9.07
2023-02-12T21:06:49.609Z,8.57
2023-02-12T21:09:19.926Z,8.95
2023-02-12T21:11:49.073Z,9.75
2023-02-12T21:14:23.664Z,8.85
2023-02-12T21:16:54.018Z,9.80
2023-02-12T21:19:23.537Z,8.57
2023-02-12T21:21:52.205Z,11.77
2023-02-12T21:24:24.852Z,10.63
2023-02-12T21:26:55.189Z,9.80
2023-02-12T21:29:26.624Z,10.00
2023-02-12T21:31:55.605Z,8.88
2023-02-12T21:34:25.304Z,11.10
2023-02-12T21:36:56.863Z,13.10
2023-02-12T21:39:28.943Z,11.07
2023-02-12T21:42:00.034Z,9.82
2023-02-12T21:44:28.633Z,9.30
2023-02-12T21:46:58.656Z,9.10
2023-02-12T21:49:28.241Z,8.48
2023-02-12T21:51:59.273Z,9.27
2023-02-12T21:54:29.667Z,9.57
2023-02-12T21:56:58.926Z,9.85
2023-02-12T21:59:29.510Z,9.63
2023-02-12T22:01:59.230Z,9.20
2023-02-12T22:04:28.465Z,8.10
2023-02-12T22:06:58.147Z,8.75
2023-02-12T22:09:28.033Z,8.48
2023-02-12T22:11:56.414Z,9.52
2023-02-12T22:14:24.838Z,9.48
2023-02-12T22:16:53.182Z,8.40
2023-02-12T22:19:21.583Z,9.45
2023-02-12T22:21:52.528Z,9.63
2023-02-12T22:24:21.088Z,8.95
2023-02-12T22:26:50.896Z,8.32
2023-02-12T22:29:19.458Z,8.43
2023-02-12T22:31:48.679Z,8.57
2023-02-12T22:34:19.596Z,9.10
2023-02-12T22:36:49.240Z,9.45
2023-02-12T22:39:19.316Z,7.65
2023-02-12T22:41:48.167Z,7.72
2023-02-12T22:44:20.808Z,8.45
2023-02-12T22:46:50.211Z,8.02
2023-02-12T22:49:18.902Z,8.40
2023-02-12T22:51:47.555Z,8.20
2023-02-12T22:54:18.413Z,8.93
2023-02-12T22:56:50.851Z,7.97
2023-02-12T22:59:20.598Z,7.55
2023-02-12T23:01:48.963Z,8.07
2023-02-12T23:04:18.940Z,8.40
2023-02-12T23:06:48.106Z,7.53
2023-02-12T23:09:19.029Z,8.35
2023-02-12T23:11:48.285Z,9.07
2023-02-12T23:14:16.924Z,8.00
2023-02-12T23:16:46.829Z,9.13
2023-02-12T23:19:16.579Z,8.18
2023-02-12T23:21:44.912Z,9.10
2023-02-12T23:24:15.278Z,8.63
2023-02-12T23:26:44.009Z,7.70
2023-02-12T23:29:12.604Z,6.88
2023-02-12T23:31:41.185Z,7.90
2023-02-12T23:34:11.230Z,8.15
2023-02-12T23:36:39.776Z,7.97
2023-02-12T23:39:09.572Z,7.68
2023-02-12T23:41:38.041Z,7.32
2023-02-12T23:44:07.206Z,8.20
2023-02-12T23:46:35.571Z,7.95
2023-02-12T23:49:04.219Z,7.88
2023-02-12T23:51:34.570Z,8.32
2023-02-12T23:54:03.273Z,7.53
2023-02-12T23:56:31.721Z,8.02
2023-02-12T23:59:00.051Z,7.75
